»·PEaware :: N7851P KLAX-KSNA

N7851P :: KLAX-KSNA

FLIGHT INFORMATION

Flight Status: Arrived
Operator: Privately registered:
United States
More flights under this callsign
Pilot: Kevin M. (19404)
Aircraft: CESSNA 172 SKYHAWK
(C172)
More flights by this aircraft type
Origin: KLAX Los Angeles Intl
United States
Destination: KSNA John Wayne-Orange Co
United States
More flights between these airports :: More routes between these airports
Route: +SLI8 SLI
File this flight plan on PilotEdge
Remarks: I6
Altitude:
(Current/Filed)
4,000ft
Speed:
(Current/Filed)
110kts
Departed: 24-Nov-18 09:48 AM
Arrived: 24-Nov-18 10:33 AM
Distance/Time
Traveled:
31nm/0:45
Distance/Time
To Go:
Arrived

Flight Plot

Page will automatically refresh every two minutes.

Flight plan parsing failed; only flown route is shown


Map Options




Map Legend


Flown Route
Filed Route
Departure Airport
Arrival Airport
Navaid (VOR, NDB)
Fix

Horizontal Profiles

Position Reports

Time Latitude Longitude Heading Altitude Ground
Speed
24-Nov-18 09:33 33.933722 -118.394249 89 104ft 0kts
24-Nov-18 09:34 33.933722 -118.394249 89 104ft 0kts
24-Nov-18 09:35 33.933722 -118.394249 89 104ft 0kts
24-Nov-18 09:36 33.933722 -118.394249 89 104ft 0kts
24-Nov-18 09:37 33.933722 -118.394249 89 104ft 0kts
24-Nov-18 09:38 33.933722 -118.394249 89 104ft 0kts
24-Nov-18 09:39 33.933722 -118.394249 89 104ft 0kts
24-Nov-18 09:40 33.933722 -118.394249 89 104ft 0kts
24-Nov-18 09:41 33.933722 -118.394249 89 104ft 0kts
24-Nov-18 09:42 33.933722 -118.394249 89 104ft 0kts
24-Nov-18 09:43 33.933722 -118.394249 89 104ft 0kts
24-Nov-18 09:44 33.933722 -118.394249 89 104ft 0kts
24-Nov-18 09:45 33.933722 -118.394249 89 104ft 0kts
24-Nov-18 09:46 33.935080 -118.392915 80 102ft 16kts
24-Nov-18 09:47 33.935780 -118.386166 84 99ft 17kts
24-Nov-18 09:48 33.936227 -118.382986 25 96ft 0kts
24-Nov-18 09:49 33.936227 -118.382986 25 96ft 0kts
24-Nov-18 09:50 33.937245 -118.383262 291 96ft 19kts
24-Nov-18 09:51 33.935018 -118.407442 261 823ft 89kts
24-Nov-18 09:52 33.931488 -118.437602 261 1825ft 92kts
24-Nov-18 09:53 33.911045 -118.445661 173 2834ft 88kts
24-Nov-18 09:54 33.890821 -118.429204 142 3711ft 93kts
24-Nov-18 09:55 33.867947 -118.408021 142 3992ft 111kts
24-Nov-18 09:56 33.843610 -118.385541 142 3992ft 110kts
24-Nov-18 09:57 33.819655 -118.362619 141 3992ft 109kts
24-Nov-18 09:58 33.795985 -118.339800 141 3992ft 109kts
24-Nov-18 09:59 33.772208 -118.316801 141 3992ft 109kts
24-Nov-18 10:00 33.748427 -118.293722 141 3992ft 109kts
24-Nov-18 10:01 33.724370 -118.271059 141 3992ft 109kts
24-Nov-18 10:02 33.700416 -118.248482 141 3992ft 109kts
24-Nov-18 10:03 33.676198 -118.225584 141 3955ft 110kts
24-Nov-18 10:04 33.652172 -118.202789 141 3955ft 110kts
24-Nov-18 10:05 33.633426 -118.176321 77 3954ft 109kts
24-Nov-18 10:06 33.653761 -118.149998 31 3955ft 109kts
24-Nov-18 10:07 33.679950 -118.131162 30 3955ft 109kts
24-Nov-18 10:08 33.706087 -118.112436 30 3955ft 109kts
24-Nov-18 10:09 33.732134 -118.093536 32 3955ft 109kts
24-Nov-18 10:10 33.757690 -118.073867 32 3955ft 109kts
24-Nov-18 10:11 33.782468 -118.053248 54 3953ft 109kts
24-Nov-18 10:12 33.797385 -118.021534 62 3955ft 109kts
24-Nov-18 10:13 33.810865 -117.988872 67 3955ft 109kts
24-Nov-18 10:14 33.823329 -117.955664 63 3955ft 109kts
24-Nov-18 10:15 33.836601 -117.922942 63 3955ft 109kts
24-Nov-18 10:16 33.849957 -117.890135 63 3955ft 109kts
24-Nov-18 10:17 33.863037 -117.857061 64 3955ft 109kts
24-Nov-18 10:18 33.876063 -117.823898 64 3955ft 109kts
24-Nov-18 10:19 33.889141 -117.790745 64 3955ft 109kts
24-Nov-18 10:20 33.902286 -117.757554 64 3955ft 109kts
24-Nov-18 10:21 33.915372 -117.724639 64 3953ft 101kts
24-Nov-18 10:22 33.932114 -117.703769 25 3957ft 90kts
24-Nov-18 10:23 33.956432 -117.702971 297 3659ft 103kts
24-Nov-18 10:24 33.940455 -117.716424 160 3486ft 93kts
24-Nov-18 10:25 33.915467 -117.714853 205 3485ft 95kts
24-Nov-18 10:26 33.891511 -117.731475 210 3383ft 98kts
24-Nov-18 10:27 33.868425 -117.747954 210 3384ft 95kts
24-Nov-18 10:28 33.844881 -117.762640 206 3384ft 95kts
24-Nov-18 10:29 33.818999 -117.778800 207 2943ft 110kts
24-Nov-18 10:30 33.793445 -117.794598 206 2519ft 93kts
24-Nov-18 10:31 33.771003 -117.808587 207 2060ft 93kts
24-Nov-18 10:32 33.747266 -117.823553 208 1543ft 98kts
24-Nov-18 10:33 33.723813 -117.838489 206 1023ft 93kts
24-Nov-18 10:34 33.702866 -117.851774 206 563ft 78kts
24-Nov-18 10:35 33.685559 -117.862683 205 192ft 64kts
24-Nov-18 10:36 33.678121 -117.868441 293 60ft 0kts
24-Nov-18 10:37 33.679063 -117.868540 323 60ft 0kts

Navigation Log

Ident Type
Flight plan parsing failed, navigation log unavailable